• Join FlightAware (Why Join?)
  • Login
  • US Flag 
05:40PM EDT


 

Airport Tracker/Info


-or-


 

Live Flight TrackerFlight Track Log ✈ TAM3362 ✈ 17-May-2013 ✈ SBGR / GRU - SBVT / VIX

Flight Track Log - Related Links

Times and Time Zones

All times are in EDT time to prevent confusion due to time zone crossing. See the TAM3362 flight status page for this flight to view local times or setup timezone preferences in your user account.

Time Position Orientation Groundspeed Altitude Reporting Facility
EDT Latitude Longitude Course Direction KTS MPH feet Rate Location/Type
08:24AM -23.4270 -46.4570 70° East 168 193 2,400  Level FlightAware
08:25AM -23.4210 -46.4340 74° East 178 205 3,300 1,620 Climbing FlightAware
08:25AM -23.4170 -46.4200 73° East 193 222 3,500 780 Climbing FlightAware
08:25AM -23.4130 -46.4060 73° East 215 247 3,700 900 Climbing FlightAware
08:26AM -23.4050 -46.3800 71° East 246 283 4,100 1,920 Climbing FlightAware
08:26AM -23.3940 -46.3450 71° East 262 302 5,300 2,760 Climbing FlightAware
08:26AM -23.3880 -46.3250 72° East 259 298 6,200 2,400 Climbing FlightAware
08:27AM -23.3770 -46.2880 72° East 280 322 7,100 2,100 Climbing FlightAware
08:27AM -23.3700 -46.2650 72° East 291 335 7,600 1,980 Climbing FlightAware
08:28AM -23.3580 -46.2260 71° East 300 345 8,600 2,040 Climbing FlightAware
08:28AM -23.3480 -46.1930 72° East 310 357 9,500 1,860 Climbing FlightAware
08:29AM -23.3250 -46.1160 72° East 343 395 10,800 1,620 Climbing FlightAware
08:29AM -23.3040 -46.0490 71° East 369 425 11,800 1,860 Climbing FlightAware
08:30AM -23.2830 -45.9770 72° East 373 429 13,300 2,100 Climbing FlightAware
08:31AM -23.2580 -45.8970 71° East 378 435 14,800 1,860 Climbing FlightAware
08:32AM -23.2360 -45.8080 75° East 391 450 16,100 1,560 Climbing FlightAware
08:32AM -23.2220 -45.7440 77° East 402 463 16,900 1,380 Climbing FlightAware
08:33AM -23.2090 -45.6830 77° East 408 470 17,600 1,740 Climbing FlightAware
08:33AM -23.1940 -45.6140 77° East 407 468 18,800 1,560 Climbing FlightAware
08:34AM -23.1760 -45.5330 76° East 421 484 19,600 1,380 Climbing FlightAware
08:35AM -23.1560 -45.4370 77° East 425 489 20,800 1,440 Climbing FlightAware
08:35AM -23.1370 -45.3500 77° East 432 497 21,700 1,200 Climbing FlightAware
08:36AM -23.1090 -45.2670 70° East 448 516 22,400 1,080 Climbing FlightAware
08:37AM -23.0840 -45.1970 69° East 456 525 23,100 1,200 Climbing FlightAware
08:37AM -23.0560 -45.1170 69° East 461 531 23,800 1,560 Climbing FlightAware
08:38AM -23.0230 -45.0240 69° East 454 522 25,200 1,200 Climbing FlightAware
08:38AM -22.9950 -44.9460 69° East 468 539 25,400 540 Climbing FlightAware
08:39AM -22.9640 -44.8570 69° East 480 552 25,900 900 Climbing FlightAware
08:40AM -22.9340 -44.7700 69° East 481 554 26,600 840 Climbing FlightAware
08:41AM -22.9000 -44.6720 69° East 479 551 27,100 300 Climbing FlightAware
08:41AM -22.8740 -44.5950 70° East 479 551 27,100  Level FlightAware
08:42AM -22.8480 -44.5180 70° East 479 551 27,100 1,860 Level FlightAware
08:43AM -22.7910 -44.3690 67° East 488 562 29,900 2,280 Climbing FlightAware
08:43AM -22.7620 -44.2870 69° East 491 565 30,400 1,020 Climbing FlightAware
08:44AM -22.7300 -44.1970 69° East 486 559 31,200 600 Climbing FlightAware
08:45AM -22.7020 -44.1240 67° East 486 559 31,200  Level FlightAware
08:45AM -22.6740 -44.0470 69° East 486 559 31,200  Level FlightAware
08:46AM -22.6450 -43.9700 68° East 486 559 31,200 1,560 Level FlightAware
08:47AM -22.5880 -43.8030 70° East 494 568 33,600 1,860 Climbing FlightAware
08:47AM -22.5580 -43.7270 67° East 498 573 33,900 720 Climbing FlightAware
08:48AM -22.5190 -43.6650 56° Northeast 495 570 34,400 720 Climbing FlightAware
08:49AM -22.4590 -43.5700 56° Northeast 501 577 34,800 420 Climbing FlightAware
08:49AM -22.4070 -43.4870 56° Northeast 503 579 35,000 120 Climbing FlightAware
08:50AM -22.3630 -43.4170 56° Northeast 510 587 35,000  Level FlightAware
08:51AM -22.2950 -43.3090 56° Northeast 510 587 35,000 -120 Level FlightAware
08:51AM -22.2430 -43.2260 56° Northeast 506 582 34,900 -600 Descending FlightAware
08:52AM -22.1830 -43.1300 56° Northeast 499 574 34,200 -1,020 Descending FlightAware
08:53AM -22.1320 -43.0490 56° Northeast 491 565 33,500 -1,020 Descending FlightAware
08:53AM -22.0800 -42.9680 55° Northeast 485 558 32,900 -960 Descending FlightAware
08:54AM -22.0180 -42.8690 56° Northeast 481 554 32,100 -960 Descending FlightAware
08:55AM -21.9760 -42.8030 56° Northeast 475 547 31,600 -900 Descending FlightAware
08:55AM -21.9310 -42.7320 56° Northeast 469 540 31,100 -540 Descending FlightAware
08:56AM -21.8890 -42.6660 56° Northeast 472 543 31,000 -120 Descending FlightAware
08:57AM -21.8400 -42.5900 55° Northeast 473 544 31,000  Level FlightAware
08:57AM -21.7900 -42.5110 56° Northeast 472 543 31,000  Level FlightAware
08:58AM -21.7400 -42.4340 55° Northeast 472 543 31,000  Level FlightAware
08:59AM -21.6840 -42.3460 56° Northeast 471 542 31,000  Level FlightAware
09:00AM -21.6290 -42.2590 56° Northeast 471 542 31,000  Level FlightAware
09:00AM -21.5880 -42.1970 55° Northeast 471 542 31,000  Level FlightAware
09:01AM -21.5460 -42.1320 55° Northeast 471 542 31,000  Level FlightAware
09:02AM -21.4730 -42.0170 56° Northeast 471 542 31,000  Level FlightAware
09:02AM -21.4310 -41.9530 55° Northeast 471 542 31,000  Level FlightAware
09:03AM -21.3740 -41.8640 55° Northeast 473 544 31,000  Level FlightAware
09:04AM -21.3250 -41.7870 56° Northeast 475 547 31,000  Level FlightAware
09:04AM -21.2690 -41.7020 55° Northeast 475 547 31,000  Level FlightAware
09:05AM -21.2340 -41.6470 56° Northeast 476 548 31,000  Level FlightAware
09:06AM -21.2380 -41.6530 234° Southwest 476 548 31,000 -900 Level FlightAware
09:06AM -21.1920 -41.5830 55° Northeast 476 548 30,000 -1,320 Descending FlightAware
09:07AM -21.1420 -41.5060 55° Northeast 476 548 29,500 -2,040 Descending FlightAware
09:08AM -21.0510 -41.4090 45° Northeast 469 540 26,800 -2,220 Descending FlightAware
09:08AM -20.9840 -41.3330 47° Northeast 462 532 25,800 -2,280 Descending FlightAware
09:09AM -20.9160 -41.2540 47° Northeast 434 499 23,400 -2,700 Descending FlightAware
09:10AM -20.8600 -41.1900 47° Northeast 420 483 22,000 -2,220 Descending FlightAware
09:10AM -20.8000 -41.1230 46° Northeast 406 467 20,500 -1,920 Descending FlightAware
09:11AM -20.7460 -41.0620 47° Northeast 392 451 19,300 -1,560 Descending FlightAware
09:12AM -20.7140 -41.0250 47° Northeast 386 444 18,600 -1,560 Descending FlightAware
09:12AM -20.6860 -40.9930 47° Northeast 382 440 18,000 -1,680 Descending FlightAware
09:13AM -20.6190 -40.9170 47° Northeast 374 430 16,500 -1,560 Descending FlightAware
09:14AM -20.5720 -40.8580 50° Northeast 362 417 15,600 -1,140 Descending FlightAware
09:14AM -20.5450 -40.8110 58° Northeast 335 386 15,100 -1,140 Descending FlightAware
09:15AM -20.5140 -40.7540 60° Northeast 326 375 14,200 -1,440 Descending FlightAware
09:16AM -20.4760 -40.6860 59° Northeast 321 369 13,000 -1,560 Descending FlightAware
09:16AM -20.4430 -40.6360 55° Northeast 319 367 11,900 -1,740 Descending FlightAware
09:17AM -20.3920 -40.5900 40° Northeast 311 358 10,600 -1,380 Descending FlightAware
09:18AM -20.3560 -40.5560 42° Northeast 306 352 10,000 -1,080 Descending FlightAware
09:18AM -20.3210 -40.5250 40° Northeast 301 346 9,400 -1,320 Descending FlightAware
09:19AM -20.2890 -40.4950 41° Northeast 295 339 8,700 -1,320 Descending FlightAware
09:19AM -20.2730 -40.4790 43° Northeast 293 337 8,300 -1,440 Descending FlightAware
09:20AM -20.2370 -40.4460 41° Northeast 289 333 7,400 -1,440 Descending FlightAware
09:20AM -20.2110 -40.4220 41° Northeast 289 333 6,900 -1,320 Descending FlightAware
09:21AM -20.1830 -40.3970 40° Northeast 285 328 6,200 -1,620 Descending FlightAware
09:21AM -20.1500 -40.3660 41° Northeast 285 328 5,300 -1,560 Descending FlightAware
09:22AM -20.1270 -40.3440 42° Northeast 285 328 4,800 -1,320 Descending FlightAware
09:22AM -20.0950 -40.3150 40° Northeast 281 323 4,100 -900 Descending FlightAware
09:23AM -20.0640 -40.2870 40° Northeast 253 291 3,900 -240 Descending FlightAware
09:23AM -20.0460 -40.2640 50° Northeast 222 255 3,900 -180 Level FlightAware
09:23AM -20.0450 -40.2570 81° East 218 251 3,800 -840 Descending FlightAware
09:24AM -20.0610 -40.2280 120° Southeast 192 221 3,300 -720 Descending FlightAware
09:24AM -20.0790 -40.2140 144° Southeast 186 214 3,100 -300 Descending FlightAware
09:24AM -20.0930 -40.2020 141° Southeast 181 208 3,100  Level FlightAware
09:25AM -20.1060 -40.1930 147° Southeast 155 178 3,100 -360 Level FlightAware
09:25AM -20.1240 -40.1980 195° South 144 166 2,800 -720 Descending FlightAware
09:26AM -20.1370 -40.2070 213° Southwest 138 159 2,500 -780 Descending FlightAware
09:26AM -20.1530 -40.2180 213° Southwest 137 158 2,100 -840 Descending FlightAware
09:27AM -20.1710 -40.2290 210° Southwest 138 159 1,700 -840 Descending FlightAware
09:27AM -20.1800 -40.2360 216° Southwest 134 154 1,500 -780 Descending FlightAware
09:27AM -20.1950 -40.2450 209° Southwest 138 159 1,200 -660 Descending FlightAware
09:28AM -20.2080 -40.2530 210° Southwest 139 160 900 -720 Descending FlightAware
09:28AM -20.2210 -40.2630 216° Southwest 136 157 600 -660 Descending FlightAware
09:29AM -20.2360 -40.2720 209° Southwest 138 159 300 -480 Descending FlightAware
09:29AM -20.2380 -40.2740 223° Southwest 138 159 300  Level FlightAware
09:35AM -20.2581 -40.2864 69° East  Level Estimated
09:37AM -20.2581 -40.2864 290° West  Level Estimated
09:38AM -20.2581 -40.2864 13° North  Level Estimated
09:39AM -20.2581 -40.2864 13° North  Level Estimated